sensor_id;sensor_type;location;lat;lon;timestamp;P1;durP1;ratioP1;P2;durP2;ratioP2
66143;SDS011;52947;50.842;6.084;2023-08-17T00:00:46;7.70;;;5.57;;
66143;SDS011;52947;50.842;6.084;2023-08-17T00:03:14;10.27;;;5.65;;
66143;SDS011;52947;50.842;6.084;2023-08-17T00:05:42;10.45;;;5.50;;
66143;SDS011;52947;50.842;6.084;2023-08-17T00:08:10;11.57;;;7.18;;
66143;SDS011;52947;50.842;6.084;2023-08-17T00:10:39;9.75;;;6.22;;
66143;SDS011;52947;50.842;6.084;2023-08-17T00:13:07;12.15;;;7.57;;
66143;SDS011;52947;50.842;6.084;2023-08-17T00:15:35;10.80;;;8.05;;
66143;SDS011;52947;50.842;6.084;2023-08-17T00:18:03;14.43;;;8.30;;
66143;SDS011;52947;50.842;6.084;2023-08-17T00:20:31;8.88;;;5.72;;
66143;SDS011;52947;50.842;6.084;2023-08-17T00:22:59;14.33;;;6.00;;
66143;SDS011;52947;50.842;6.084;2023-08-17T00:25:27;11.23;;;7.55;;
66143;SDS011;52947;50.842;6.084;2023-08-17T00:27:56;10.75;;;7.22;;
66143;SDS011;52947;50.842;6.084;2023-08-17T00:30:24;12.25;;;8.45;;
66143;SDS011;52947;50.842;6.084;2023-08-17T00:32:52;13.15;;;9.27;;
66143;SDS011;52947;50.842;6.084;2023-08-17T00:35:20;11.27;;;7.53;;
66143;SDS011;52947;50.842;6.084;2023-08-17T00:37:48;14.02;;;10.75;;
66143;SDS011;52947;50.842;6.084;2023-08-17T00:40:16;13.27;;;9.48;;
66143;SDS011;52947;50.842;6.084;2023-08-17T00:42:44;14.70;;;10.45;;
66143;SDS011;52947;50.842;6.084;2023-08-17T00:45:17;15.63;;;10.73;;
66143;SDS011;52947;50.842;6.084;2023-08-17T00:47:46;13.80;;;10.90;;
66143;SDS011;52947;50.842;6.084;2023-08-17T00:50:14;18.77;;;10.37;;
66143;SDS011;52947;50.842;6.084;2023-08-17T00:52:43;15.05;;;11.23;;
66143;SDS011;52947;50.842;6.084;2023-08-17T00:55:11;18.98;;;10.95;;
66143;SDS011;52947;50.842;6.084;2023-08-17T00:57:39;15.45;;;12.38;;
66143;SDS011;52947;50.842;6.084;2023-08-17T01:00:08;13.65;;;10.65;;
66143;SDS011;52947;50.842;6.084;2023-08-17T01:02:44;14.60;;;11.02;;
66143;SDS011;52947;50.842;6.084;2023-08-17T01:05:15;17.10;;;11.93;;
66143;SDS011;52947;50.842;6.084;2023-08-17T01:07:43;19.50;;;13.52;;
66143;SDS011;52947;50.842;6.084;2023-08-17T01:10:11;15.35;;;10.40;;
66143;SDS011;52947;50.842;6.084;2023-08-17T01:12:42;15.95;;;11.70;;
66143;SDS011;52947;50.842;6.084;2023-08-17T01:15:15;17.23;;;11.30;;
66143;SDS011;52947;50.842;6.084;2023-08-17T01:17:51;17.52;;;11.35;;
66143;SDS011;52947;50.842;6.084;2023-08-17T01:20:22;15.68;;;11.02;;
66143;SDS011;52947;50.842;6.084;2023-08-17T01:22:51;14.15;;;10.73;;
66143;SDS011;52947;50.842;6.084;2023-08-17T01:25:24;16.73;;;11.32;;
66143;SDS011;52947;50.842;6.084;2023-08-17T01:27:52;14.43;;;10.00;;
66143;SDS011;52947;50.842;6.084;2023-08-17T01:30:20;14.63;;;10.48;;
66143;SDS011;52947;50.842;6.084;2023-08-17T01:32:49;14.57;;;8.23;;
66143;SDS011;52947;50.842;6.084;2023-08-17T01:35:23;13.80;;;8.23;;
66143;SDS011;52947;50.842;6.084;2023-08-17T01:37:58;13.05;;;9.25;;
66143;SDS011;52947;50.842;6.084;2023-08-17T01:40:28;16.40;;;9.55;;
66143;SDS011;52947;50.842;6.084;2023-08-17T01:43:00;12.68;;;7.95;;
66143;SDS011;52947;50.842;6.084;2023-08-17T01:45:29;13.73;;;10.18;;
66143;SDS011;52947;50.842;6.084;2023-08-17T01:48:00;17.17;;;10.98;;
66143;SDS011;52947;50.842;6.084;2023-08-17T01:50:29;15.93;;;10.70;;
66143;SDS011;52947;50.842;6.084;2023-08-17T01:52:57;15.23;;;9.07;;
66143;SDS011;52947;50.842;6.084;2023-08-17T01:55:25;12.75;;;9.25;;
66143;SDS011;52947;50.842;6.084;2023-08-17T01:57:55;13.25;;;9.93;;
66143;SDS011;52947;50.842;6.084;2023-08-17T02:00:23;13.25;;;9.02;;
66143;SDS011;52947;50.842;6.084;2023-08-17T02:02:51;13.80;;;8.95;;
66143;SDS011;52947;50.842;6.084;2023-08-17T02:05:19;12.98;;;9.32;;
66143;SDS011;52947;50.842;6.084;2023-08-17T02:07:47;13.40;;;8.52;;
66143;SDS011;52947;50.842;6.084;2023-08-17T02:10:15;9.13;;;6.60;;
66143;SDS011;52947;50.842;6.084;2023-08-17T02:12:43;17.55;;;8.23;;
66143;SDS011;52947;50.842;6.084;2023-08-17T02:15:12;13.50;;;8.63;;
66143;SDS011;52947;50.842;6.084;2023-08-17T02:17:40;13.50;;;8.55;;
66143;SDS011;52947;50.842;6.084;2023-08-17T02:20:09;11.37;;;7.57;;
66143;SDS011;52947;50.842;6.084;2023-08-17T02:22:37;15.57;;;10.18;;
66143;SDS011;52947;50.842;6.084;2023-08-17T02:25:05;12.55;;;8.73;;
66143;SDS011;52947;50.842;6.084;2023-08-17T02:27:33;10.43;;;7.77;;
66143;SDS011;52947;50.842;6.084;2023-08-17T02:30:02;12.95;;;9.43;;
66143;SDS011;52947;50.842;6.084;2023-08-17T02:32:32;11.95;;;9.10;;
66143;SDS011;52947;50.842;6.084;2023-08-17T02:35:00;20.42;;;9.82;;
66143;SDS011;52947;50.842;6.084;2023-08-17T02:37:28;13.98;;;10.75;;
66143;SDS011;52947;50.842;6.084;2023-08-17T02:39:56;12.65;;;9.35;;
66143;SDS011;52947;50.842;6.084;2023-08-17T02:42:24;16.10;;;11.95;;
66143;SDS011;52947;50.842;6.084;2023-08-17T02:44:53;19.35;;;13.23;;
66143;SDS011;52947;50.842;6.084;2023-08-17T02:47:21;13.13;;;11.73;;
66143;SDS011;52947;50.842;6.084;2023-08-17T02:49:50;16.33;;;13.18;;
66143;SDS011;52947;50.842;6.084;2023-08-17T02:52:18;21.88;;;15.93;;
66143;SDS011;52947;50.842;6.084;2023-08-17T02:54:46;17.15;;;14.75;;
66143;SDS011;52947;50.842;6.084;2023-08-17T02:57:14;21.52;;;17.00;;
66143;SDS011;52947;50.842;6.084;2023-08-17T02:59:42;19.60;;;14.88;;
66143;SDS011;52947;50.842;6.084;2023-08-17T03:02:10;17.65;;;14.75;;
66143;SDS011;52947;50.842;6.084;2023-08-17T03:04:38;16.50;;;14.40;;
66143;SDS011;52947;50.842;6.084;2023-08-17T03:07:08;19.10;;;13.77;;
66143;SDS011;52947;50.842;6.084;2023-08-17T03:09:36;20.50;;;16.27;;
66143;SDS011;52947;50.842;6.084;2023-08-17T03:12:04;17.83;;;15.93;;
66143;SDS011;52947;50.842;6.084;2023-08-17T03:14:32;18.85;;;16.17;;
66143;SDS011;52947;50.842;6.084;2023-08-17T03:17:00;21.35;;;17.52;;
66143;SDS011;52947;50.842;6.084;2023-08-17T03:19:28;20.50;;;15.93;;
66143;SDS011;52947;50.842;6.084;2023-08-17T03:21:56;21.30;;;18.00;;
66143;SDS011;52947;50.842;6.084;2023-08-17T03:24:25;21.25;;;17.30;;
66143;SDS011;52947;50.842;6.084;2023-08-17T03:26:54;21.20;;;16.45;;
66143;SDS011;52947;50.842;6.084;2023-08-17T03:29:24;19.67;;;17.52;;
66143;SDS011;52947;50.842;6.084;2023-08-17T03:31:54;20.75;;;17.75;;
66143;SDS011;52947;50.842;6.084;2023-08-17T03:34:22;21.98;;;18.13;;
66143;SDS011;52947;50.842;6.084;2023-08-17T03:36:50;18.83;;;16.38;;
66143;SDS011;52947;50.842;6.084;2023-08-17T03:39:18;24.17;;;17.88;;
66143;SDS011;52947;50.842;6.084;2023-08-17T03:41:48;24.55;;;18.90;;
66143;SDS011;52947;50.842;6.084;2023-08-17T03:46:43;24.15;;;18.77;;
66143;SDS011;52947;50.842;6.084;2023-08-17T03:49:12;23.95;;;18.92;;
66143;SDS011;52947;50.842;6.084;2023-08-17T03:51:40;23.73;;;19.10;;
66143;SDS011;52947;50.842;6.084;2023-08-17T03:54:09;25.98;;;19.95;;
66143;SDS011;52947;50.842;6.084;2023-08-17T03:56:37;29.75;;;18.85;;
66143;SDS011;52947;50.842;6.084;2023-08-17T03:59:07;26.48;;;20.73;;
66143;SDS011;52947;50.842;6.084;2023-08-17T04:01:35;25.48;;;20.02;;
66143;SDS011;52947;50.842;6.084;2023-08-17T04:04:03;25.73;;;20.13;;
66143;SDS011;52947;50.842;6.084;2023-08-17T04:06:31;19.20;;;15.93;;
66143;SDS011;52947;50.842;6.084;2023-08-17T04:08:59;24.13;;;19.20;;
66143;SDS011;52947;50.842;6.084;2023-08-17T04:11:27;23.17;;;19.08;;
66143;SDS011;52947;50.842;6.084;2023-08-17T04:13:55;22.20;;;18.73;;
66143;SDS011;52947;50.842;6.084;2023-08-17T04:16:25;17.10;;;14.35;;
66143;SDS011;52947;50.842;6.084;2023-08-17T04:18:52;24.65;;;16.83;;
66143;SDS011;52947;50.842;6.084;2023-08-17T04:21:20;29.67;;;17.95;;
66143;SDS011;52947;50.842;6.084;2023-08-17T04:23:48;21.52;;;13.85;;
66143;SDS011;52947;50.842;6.084;2023-08-17T04:26:16;15.98;;;13.55;;
66143;SDS011;52947;50.842;6.084;2023-08-17T04:28:44;19.20;;;14.57;;
66143;SDS011;52947;50.842;6.084;2023-08-17T04:31:14;19.63;;;15.85;;
66143;SDS011;52947;50.842;6.084;2023-08-17T04:33:47;21.75;;;16.83;;
66143;SDS011;52947;50.842;6.084;2023-08-17T04:36:15;19.27;;;12.75;;
66143;SDS011;52947;50.842;6.084;2023-08-17T04:38:43;27.13;;;18.35;;
66143;SDS011;52947;50.842;6.084;2023-08-17T04:41:11;21.40;;;15.48;;
66143;SDS011;52947;50.842;6.084;2023-08-17T04:43:39;23.73;;;18.73;;
66143;SDS011;52947;50.842;6.084;2023-08-17T04:46:09;27.90;;;19.02;;
66143;SDS011;52947;50.842;6.084;2023-08-17T04:48:38;31.00;;;19.42;;
66143;SDS011;52947;50.842;6.084;2023-08-17T04:51:07;26.23;;;16.85;;
66143;SDS011;52947;50.842;6.084;2023-08-17T04:53:35;28.48;;;16.42;;
66143;SDS011;52947;50.842;6.084;2023-08-17T04:56:04;23.95;;;17.10;;
66143;SDS011;52947;50.842;6.084;2023-08-17T04:58:32;27.80;;;18.93;;
66143;SDS011;52947;50.842;6.084;2023-08-17T05:01:00;31.02;;;20.40;;
66143;SDS011;52947;50.842;6.084;2023-08-17T05:03:28;28.85;;;19.23;;
66143;SDS011;52947;50.842;6.084;2023-08-17T05:06:00;28.55;;;18.15;;
66143;SDS011;52947;50.842;6.084;2023-08-17T05:08:30;28.85;;;18.92;;
66143;SDS011;52947;50.842;6.084;2023-08-17T05:10:58;30.67;;;20.38;;
66143;SDS011;52947;50.842;6.084;2023-08-17T05:13:26;38.08;;;21.90;;
66143;SDS011;52947;50.842;6.084;2023-08-17T05:15:57;32.95;;;21.63;;
66143;SDS011;52947;50.842;6.084;2023-08-17T05:18:25;33.67;;;22.00;;
66143;SDS011;52947;50.842;6.084;2023-08-17T05:20:53;37.88;;;24.38;;
66143;SDS011;52947;50.842;6.084;2023-08-17T05:23:21;41.28;;;25.73;;
66143;SDS011;52947;50.842;6.084;2023-08-17T05:25:53;34.65;;;20.40;;
66143;SDS011;52947;50.842;6.084;2023-08-17T05:28:21;34.60;;;22.90;;
66143;SDS011;52947;50.842;6.084;2023-08-17T05:30:49;34.30;;;22.98;;
66143;SDS011;52947;50.842;6.084;2023-08-17T05:33:17;32.83;;;24.03;;
66143;SDS011;52947;50.842;6.084;2023-08-17T05:35:45;40.80;;;23.83;;
66143;SDS011;52947;50.842;6.084;2023-08-17T05:38:13;35.30;;;24.73;;
66143;SDS011;52947;50.842;6.084;2023-08-17T05:40:41;32.65;;;23.13;;
66143;SDS011;52947;50.842;6.084;2023-08-17T05:43:11;33.78;;;24.60;;
66143;SDS011;52947;50.842;6.084;2023-08-17T05:45:38;37.63;;;23.92;;
66143;SDS011;52947;50.842;6.084;2023-08-17T05:48:06;44.00;;;28.27;;
66143;SDS011;52947;50.842;6.084;2023-08-17T05:50:34;35.13;;;22.95;;
66143;SDS011;52947;50.842;6.084;2023-08-17T05:53:02;44.42;;;27.20;;
66143;SDS011;52947;50.842;6.084;2023-08-17T05:55:30;37.17;;;23.53;;
66143;SDS011;52947;50.842;6.084;2023-08-17T05:57:58;51.00;;;27.83;;
66143;SDS011;52947;50.842;6.084;2023-08-17T06:00:28;45.80;;;27.80;;
66143;SDS011;52947;50.842;6.084;2023-08-17T06:05:27;46.30;;;28.10;;
66143;SDS011;52947;50.842;6.084;2023-08-17T06:07:56;42.40;;;25.53;;
66143;SDS011;52947;50.842;6.084;2023-08-17T06:10:24;43.03;;;25.27;;
66143;SDS011;52947;50.842;6.084;2023-08-17T06:12:52;38.50;;;24.75;;
66143;SDS011;52947;50.842;6.084;2023-08-17T06:15:20;34.95;;;21.05;;
66143;SDS011;52947;50.842;6.084;2023-08-17T06:17:49;44.55;;;27.42;;
66143;SDS011;52947;50.842;6.084;2023-08-17T06:20:18;43.67;;;26.10;;
66143;SDS011;52947;50.842;6.084;2023-08-17T06:22:46;50.13;;;27.45;;
66143;SDS011;52947;50.842;6.084;2023-08-17T06:25:15;44.28;;;27.75;;
66143;SDS011;52947;50.842;6.084;2023-08-17T06:27:43;54.83;;;29.13;;
66143;SDS011;52947;50.842;6.084;2023-08-17T06:30:11;40.40;;;26.02;;
66143;SDS011;52947;50.842;6.084;2023-08-17T06:32:39;47.47;;;28.95;;
66143;SDS011;52947;50.842;6.084;2023-08-17T06:35:09;48.97;;;29.70;;
66143;SDS011;52947;50.842;6.084;2023-08-17T06:37:37;50.20;;;28.15;;
66143;SDS011;52947;50.842;6.084;2023-08-17T06:40:05;41.05;;;25.20;;
66143;SDS011;52947;50.842;6.084;2023-08-17T06:42:35;39.22;;;24.10;;
66143;SDS011;52947;50.842;6.084;2023-08-17T06:45:03;37.65;;;23.45;;
66143;SDS011;52947;50.842;6.084;2023-08-17T06:50:00;46.30;;;25.70;;
66143;SDS011;52947;50.842;6.084;2023-08-17T06:52:29;41.08;;;26.13;;
66143;SDS011;52947;50.842;6.084;2023-08-17T06:54:57;45.85;;;27.25;;
66143;SDS011;52947;50.842;6.084;2023-08-17T06:57:25;45.15;;;28.23;;
66143;SDS011;52947;50.842;6.084;2023-08-17T06:59:53;44.88;;;27.90;;
66143;SDS011;52947;50.842;6.084;2023-08-17T07:02:21;42.50;;;25.33;;
66143;SDS011;52947;50.842;6.084;2023-08-17T07:04:50;45.75;;;25.90;;
66143;SDS011;52947;50.842;6.084;2023-08-17T07:07:18;38.83;;;25.27;;
66143;SDS011;52947;50.842;6.084;2023-08-17T07:09:47;32.63;;;23.65;;
66143;SDS011;52947;50.842;6.084;2023-08-17T07:12:15;31.48;;;21.10;;
66143;SDS011;52947;50.842;6.084;2023-08-17T07:14:43;41.08;;;24.50;;
66143;SDS011;52947;50.842;6.084;2023-08-17T07:17:10;30.77;;;22.58;;
66143;SDS011;52947;50.842;6.084;2023-08-17T07:19:38;34.45;;;20.75;;
66143;SDS011;52947;50.842;6.084;2023-08-17T07:22:09;45.72;;;26.45;;
66143;SDS011;52947;50.842;6.084;2023-08-17T07:24:37;37.35;;;23.30;;
66143;SDS011;52947;50.842;6.084;2023-08-17T07:27:06;40.03;;;25.17;;
66143;SDS011;52947;50.842;6.084;2023-08-17T07:29:34;43.33;;;25.17;;
66143;SDS011;52947;50.842;6.084;2023-08-17T07:32:03;31.47;;;21.57;;
66143;SDS011;52947;50.842;6.084;2023-08-17T07:34:31;40.40;;;24.73;;
66143;SDS011;52947;50.842;6.084;2023-08-17T07:36:59;33.35;;;21.90;;
66143;SDS011;52947;50.842;6.084;2023-08-17T07:39:27;34.47;;;22.60;;
66143;SDS011;52947;50.842;6.084;2023-08-17T07:41:55;35.55;;;23.08;;
66143;SDS011;52947;50.842;6.084;2023-08-17T07:44:24;38.17;;;22.67;;
66143;SDS011;52947;50.842;6.084;2023-08-17T07:46:52;29.77;;;20.77;;
66143;SDS011;52947;50.842;6.084;2023-08-17T07:49:20;32.83;;;19.90;;
66143;SDS011;52947;50.842;6.084;2023-08-17T07:51:58;32.72;;;20.95;;
66143;SDS011;52947;50.842;6.084;2023-08-17T07:54:26;33.50;;;22.90;;
66143;SDS011;52947;50.842;6.084;2023-08-17T07:56:55;34.92;;;23.30;;
66143;SDS011;52947;50.842;6.084;2023-08-17T07:59:24;36.65;;;22.98;;
66143;SDS011;52947;50.842;6.084;2023-08-17T08:01:52;29.40;;;18.60;;
66143;SDS011;52947;50.842;6.084;2023-08-17T08:04:20;30.63;;;19.60;;
66143;SDS011;52947;50.842;6.084;2023-08-17T08:06:48;37.40;;;18.65;;
66143;SDS011;52947;50.842;6.084;2023-08-17T08:09:16;29.65;;;18.35;;
66143;SDS011;52947;50.842;6.084;2023-08-17T08:11:44;30.75;;;18.17;;
66143;SDS011;52947;50.842;6.084;2023-08-17T08:14:12;29.95;;;19.27;;
66143;SDS011;52947;50.842;6.084;2023-08-17T08:16:41;28.17;;;19.30;;
66143;SDS011;52947;50.842;6.084;2023-08-17T08:19:09;31.60;;;20.50;;
66143;SDS011;52947;50.842;6.084;2023-08-17T08:21:37;30.95;;;18.73;;
66143;SDS011;52947;50.842;6.084;2023-08-17T08:24:05;29.55;;;18.65;;
66143;SDS011;52947;50.842;6.084;2023-08-17T08:26:47;30.55;;;17.63;;
66143;SDS011;52947;50.842;6.084;2023-08-17T08:29:17;26.17;;;17.33;;
66143;SDS011;52947;50.842;6.084;2023-08-17T08:31:46;29.95;;;19.98;;
66143;SDS011;52947;50.842;6.084;2023-08-17T08:34:14;41.33;;;22.73;;
66143;SDS011;52947;50.842;6.084;2023-08-17T08:36:42;26.77;;;17.83;;
66143;SDS011;52947;50.842;6.084;2023-08-17T08:39:10;29.92;;;18.50;;
66143;SDS011;52947;50.842;6.084;2023-08-17T08:41:38;28.65;;;18.35;;
66143;SDS011;52947;50.842;6.084;2023-08-17T08:44:06;29.77;;;18.93;;
66143;SDS011;52947;50.842;6.084;2023-08-17T08:46:34;30.20;;;17.67;;
66143;SDS011;52947;50.842;6.084;2023-08-17T08:49:08;40.42;;;19.65;;
66143;SDS011;52947;50.842;6.084;2023-08-17T08:51:41;25.55;;;16.90;;
66143;SDS011;52947;50.842;6.084;2023-08-17T08:54:12;34.45;;;21.55;;
66143;SDS011;52947;50.842;6.084;2023-08-17T08:56:41;24.95;;;17.17;;
66143;SDS011;52947;50.842;6.084;2023-08-17T08:59:13;25.88;;;16.85;;
66143;SDS011;52947;50.842;6.084;2023-08-17T09:01:42;29.50;;;17.20;;
66143;SDS011;52947;50.842;6.084;2023-08-17T09:04:12;27.27;;;18.73;;
66143;SDS011;52947;50.842;6.084;2023-08-17T09:06:40;27.92;;;17.48;;
66143;SDS011;52947;50.842;6.084;2023-08-17T09:09:10;30.98;;;19.55;;
66143;SDS011;52947;50.842;6.084;2023-08-17T09:11:41;35.38;;;17.33;;
66143;SDS011;52947;50.842;6.084;2023-08-17T09:14:10;25.60;;;16.55;;
66143;SDS011;52947;50.842;6.084;2023-08-17T09:16:38;26.80;;;17.95;;
66143;SDS011;52947;50.842;6.084;2023-08-17T09:19:07;26.90;;;17.37;;
66143;SDS011;52947;50.842;6.084;2023-08-17T09:21:36;26.55;;;15.25;;
66143;SDS011;52947;50.842;6.084;2023-08-17T09:24:04;29.27;;;18.25;;
66143;SDS011;52947;50.842;6.084;2023-08-17T09:26:34;23.83;;;15.57;;
66143;SDS011;52947;50.842;6.084;2023-08-17T09:29:05;27.27;;;17.08;;
66143;SDS011;52947;50.842;6.084;2023-08-17T09:31:44;28.60;;;18.23;;
66143;SDS011;52947;50.842;6.084;2023-08-17T09:34:12;25.30;;;15.57;;
66143;SDS011;52947;50.842;6.084;2023-08-17T09:36:45;24.33;;;16.92;;
66143;SDS011;52947;50.842;6.084;2023-08-17T09:39:15;25.13;;;16.48;;
66143;SDS011;52947;50.842;6.084;2023-08-17T09:41:43;25.65;;;15.85;;
66143;SDS011;52947;50.842;6.084;2023-08-17T09:44:11;25.08;;;15.20;;
66143;SDS011;52947;50.842;6.084;2023-08-17T09:46:41;27.40;;;15.13;;
66143;SDS011;52947;50.842;6.084;2023-08-17T09:49:10;29.17;;;16.10;;
66143;SDS011;52947;50.842;6.084;2023-08-17T09:51:41;26.83;;;17.17;;
66143;SDS011;52947;50.842;6.084;2023-08-17T09:54:19;25.38;;;17.52;;
66143;SDS011;52947;50.842;6.084;2023-08-17T09:56:49;24.58;;;16.33;;
66143;SDS011;52947;50.842;6.084;2023-08-17T09:59:18;27.20;;;17.95;;
66143;SDS011;52947;50.842;6.084;2023-08-17T10:01:48;27.13;;;18.53;;
66143;SDS011;52947;50.842;6.084;2023-08-17T10:04:22;28.70;;;19.38;;
66143;SDS011;52947;50.842;6.084;2023-08-17T10:06:51;30.02;;;19.77;;
66143;SDS011;52947;50.842;6.084;2023-08-17T10:09:31;31.35;;;18.88;;
66143;SDS011;52947;50.842;6.084;2023-08-17T10:12:05;25.05;;;16.85;;
66143;SDS011;52947;50.842;6.084;2023-08-17T10:14:39;21.13;;;15.25;;
66143;SDS011;52947;50.842;6.084;2023-08-17T10:17:14;28.80;;;19.10;;
66143;SDS011;52947;50.842;6.084;2023-08-17T10:19:47;25.88;;;18.92;;
66143;SDS011;52947;50.842;6.084;2023-08-17T10:22:20;22.83;;;17.83;;
66143;SDS011;52947;50.842;6.084;2023-08-17T10:24:54;23.65;;;16.85;;
66143;SDS011;52947;50.842;6.084;2023-08-17T10:27:25;24.20;;;15.98;;
66143;SDS011;52947;50.842;6.084;2023-08-17T10:29:54;23.45;;;17.33;;
66143;SDS011;52947;50.842;6.084;2023-08-17T10:32:23;30.67;;;17.65;;
66143;SDS011;52947;50.842;6.084;2023-08-17T10:37:20;24.95;;;17.40;;
66143;SDS011;52947;50.842;6.084;2023-08-17T10:39:50;28.20;;;18.50;;
66143;SDS011;52947;50.842;6.084;2023-08-17T10:45:01;26.70;;;18.75;;
66143;SDS011;52947;50.842;6.084;2023-08-17T10:50:58;30.33;;;20.23;;
66143;SDS011;52947;50.842;6.084;2023-08-17T10:53:27;38.22;;;19.15;;
66143;SDS011;52947;50.842;6.084;2023-08-17T10:56:02;34.83;;;21.10;;
66143;SDS011;52947;50.842;6.084;2023-08-17T10:58:34;29.83;;;20.48;;
66143;SDS011;52947;50.842;6.084;2023-08-17T11:01:03;32.72;;;21.33;;
66143;SDS011;52947;50.842;6.084;2023-08-17T11:03:32;32.78;;;21.40;;
66143;SDS011;52947;50.842;6.084;2023-08-17T11:06:16;35.20;;;21.45;;
66143;SDS011;52947;50.842;6.084;2023-08-17T11:08:51;30.80;;;21.80;;
66143;SDS011;52947;50.842;6.084;2023-08-17T11:11:22;34.55;;;22.55;;
66143;SDS011;52947;50.842;6.084;2023-08-17T11:13:52;41.05;;;20.67;;
66143;SDS011;52947;50.842;6.084;2023-08-17T11:16:24;30.42;;;20.73;;
66143;SDS011;52947;50.842;6.084;2023-08-17T11:18:52;29.13;;;20.98;;
66143;SDS011;52947;50.842;6.084;2023-08-17T11:21:23;28.40;;;21.70;;
66143;SDS011;52947;50.842;6.084;2023-08-17T11:23:51;28.63;;;20.13;;
66143;SDS011;52947;50.842;6.084;2023-08-17T11:26:23;29.75;;;20.48;;
66143;SDS011;52947;50.842;6.084;2023-08-17T11:28:51;35.60;;;21.77;;
66143;SDS011;52947;50.842;6.084;2023-08-17T11:31:19;32.30;;;21.35;;
66143;SDS011;52947;50.842;6.084;2023-08-17T11:33:49;30.50;;;20.93;;
66143;SDS011;52947;50.842;6.084;2023-08-17T11:36:21;32.15;;;22.30;;
66143;SDS011;52947;50.842;6.084;2023-08-17T11:38:51;34.63;;;22.50;;
66143;SDS011;52947;50.842;6.084;2023-08-17T11:41:19;32.45;;;22.55;;
66143;SDS011;52947;50.842;6.084;2023-08-17T11:43:47;32.97;;;23.25;;
66143;SDS011;52947;50.842;6.084;2023-08-17T11:46:17;35.90;;;24.40;;
66143;SDS011;52947;50.842;6.084;2023-08-17T11:48:45;45.88;;;25.77;;
66143;SDS011;52947;50.842;6.084;2023-08-17T11:51:16;41.22;;;25.48;;
66143;SDS011;52947;50.842;6.084;2023-08-17T11:53:58;36.67;;;24.38;;
66143;SDS011;52947;50.842;6.084;2023-08-17T11:56:26;35.97;;;23.77;;
66143;SDS011;52947;50.842;6.084;2023-08-17T11:58:54;33.78;;;24.08;;
66143;SDS011;52947;50.842;6.084;2023-08-17T12:01:22;33.85;;;23.92;;
66143;SDS011;52947;50.842;6.084;2023-08-17T12:03:50;36.75;;;24.60;;
66143;SDS011;52947;50.842;6.084;2023-08-17T12:06:19;42.28;;;25.73;;
66143;SDS011;52947;50.842;6.084;2023-08-17T12:08:48;39.60;;;26.02;;
66143;SDS011;52947;50.842;6.084;2023-08-17T12:11:16;46.17;;;27.55;;
66143;SDS011;52947;50.842;6.084;2023-08-17T12:13:48;37.88;;;26.48;;
66143;SDS011;52947;50.842;6.084;2023-08-17T12:16:18;38.10;;;26.88;;
66143;SDS011;52947;50.842;6.084;2023-08-17T12:18:47;35.92;;;24.67;;
66143;SDS011;52947;50.842;6.084;2023-08-17T12:21:15;34.28;;;23.95;;
66143;SDS011;52947;50.842;6.084;2023-08-17T12:23:45;31.97;;;25.67;;
66143;SDS011;52947;50.842;6.084;2023-08-17T12:26:17;39.42;;;27.33;;
66143;SDS011;52947;50.842;6.084;2023-08-17T12:28:46;39.88;;;27.67;;
66143;SDS011;52947;50.842;6.084;2023-08-17T12:31:14;37.83;;;25.73;;
66143;SDS011;52947;50.842;6.084;2023-08-17T12:33:49;36.42;;;24.52;;
66143;SDS011;52947;50.842;6.084;2023-08-17T12:36:17;37.47;;;25.10;;
66143;SDS011;52947;50.842;6.084;2023-08-17T12:38:48;36.90;;;25.80;;
66143;SDS011;52947;50.842;6.084;2023-08-17T12:41:16;37.58;;;27.38;;
66143;SDS011;52947;50.842;6.084;2023-08-17T12:43:45;37.17;;;27.92;;
66143;SDS011;52947;50.842;6.084;2023-08-17T12:46:13;42.77;;;28.07;;
66143;SDS011;52947;50.842;6.084;2023-08-17T12:48:41;42.90;;;27.27;;
66143;SDS011;52947;50.842;6.084;2023-08-17T12:51:09;43.80;;;27.48;;
66143;SDS011;52947;50.842;6.084;2023-08-17T12:53:36;36.70;;;27.08;;
66143;SDS011;52947;50.842;6.084;2023-08-17T12:56:06;37.42;;;26.38;;
66143;SDS011;52947;50.842;6.084;2023-08-17T12:58:34;44.50;;;29.42;;
66143;SDS011;52947;50.842;6.084;2023-08-17T13:01:02;43.90;;;31.10;;
66143;SDS011;52947;50.842;6.084;2023-08-17T13:03:30;37.83;;;27.05;;
66143;SDS011;52947;50.842;6.084;2023-08-17T13:05:58;41.05;;;28.05;;
66143;SDS011;52947;50.842;6.084;2023-08-17T13:08:26;38.40;;;29.05;;
66143;SDS011;52947;50.842;6.084;2023-08-17T13:10:54;37.10;;;27.52;;
66143;SDS011;52947;50.842;6.084;2023-08-17T13:13:23;37.40;;;26.23;;
66143;SDS011;52947;50.842;6.084;2023-08-17T13:15:51;35.53;;;24.75;;
66143;SDS011;52947;50.842;6.084;2023-08-17T13:18:19;32.97;;;22.60;;
66143;SDS011;52947;50.842;6.084;2023-08-17T13:20:47;33.97;;;20.77;;
66143;SDS011;52947;50.842;6.084;2023-08-17T13:23:15;33.13;;;21.73;;
66143;SDS011;52947;50.842;6.084;2023-08-17T13:25:43;27.30;;;20.05;;
66143;SDS011;52947;50.842;6.084;2023-08-17T13:28:11;33.35;;;21.77;;
66143;SDS011;52947;50.842;6.084;2023-08-17T13:30:40;31.27;;;21.25;;
66143;SDS011;52947;50.842;6.084;2023-08-17T13:33:08;34.05;;;20.10;;
66143;SDS011;52947;50.842;6.084;2023-08-17T13:35:37;32.75;;;20.13;;
66143;SDS011;52947;50.842;6.084;2023-08-17T13:38:05;32.77;;;20.07;;
66143;SDS011;52947;50.842;6.084;2023-08-17T13:40:33;32.35;;;19.90;;
66143;SDS011;52947;50.842;6.084;2023-08-17T13:43:02;29.55;;;18.77;;
66143;SDS011;52947;50.842;6.084;2023-08-17T13:45:34;32.90;;;19.92;;
66143;SDS011;52947;50.842;6.084;2023-08-17T13:48:04;31.08;;;21.70;;
66143;SDS011;52947;50.842;6.084;2023-08-17T13:50:33;33.17;;;19.73;;
66143;SDS011;52947;50.842;6.084;2023-08-17T13:53:01;36.65;;;18.60;;
66143;SDS011;52947;50.842;6.084;2023-08-17T13:55:29;31.58;;;18.38;;
66143;SDS011;52947;50.842;6.084;2023-08-17T13:57:57;30.43;;;16.97;;
66143;SDS011;52947;50.842;6.084;2023-08-17T14:00:25;32.72;;;17.80;;
66143;SDS011;52947;50.842;6.084;2023-08-17T14:02:53;28.52;;;17.58;;
66143;SDS011;52947;50.842;6.084;2023-08-17T14:05:23;23.98;;;15.82;;
66143;SDS011;52947;50.842;6.084;2023-08-17T14:07:51;26.98;;;16.90;;
66143;SDS011;52947;50.842;6.084;2023-08-17T14:10:20;26.90;;;17.05;;
66143;SDS011;52947;50.842;6.084;2023-08-17T14:13:02;30.58;;;19.30;;
66143;SDS011;52947;50.842;6.084;2023-08-17T14:15:31;32.10;;;17.77;;
66143;SDS011;52947;50.842;6.084;2023-08-17T14:17:58;30.40;;;18.48;;
66143;SDS011;52947;50.842;6.084;2023-08-17T14:20:28;27.05;;;18.35;;
66143;SDS011;52947;50.842;6.084;2023-08-17T14:22:56;30.33;;;17.90;;
66143;SDS011;52947;50.842;6.084;2023-08-17T14:25:24;29.40;;;18.77;;
66143;SDS011;52947;50.842;6.084;2023-08-17T14:27:52;28.75;;;18.10;;
66143;SDS011;52947;50.842;6.084;2023-08-17T14:30:20;28.23;;;19.30;;
66143;SDS011;52947;50.842;6.084;2023-08-17T14:32:50;37.30;;;18.98;;
66143;SDS011;52947;50.842;6.084;2023-08-17T14:35:18;37.55;;;21.40;;
66143;SDS011;52947;50.842;6.084;2023-08-17T14:37:48;35.67;;;19.77;;
66143;SDS011;52947;50.842;6.084;2023-08-17T14:40:15;32.55;;;19.92;;
66143;SDS011;52947;50.842;6.084;2023-08-17T14:42:46;32.35;;;19.45;;
66143;SDS011;52947;50.842;6.084;2023-08-17T14:45:20;35.50;;;20.25;;
66143;SDS011;52947;50.842;6.084;2023-08-17T14:47:48;30.83;;;18.25;;
66143;SDS011;52947;50.842;6.084;2023-08-17T14:50:16;34.15;;;20.20;;